sensor_id;sensor_type;location;lat;lon;timestamp;P1;durP1;ratioP1;P2;durP2;ratioP2
39300;SDS011;25019;42.626;23.380;2023-02-18T00:00:12;12.60;;;6.57;;
39300;SDS011;25019;42.626;23.380;2023-02-18T00:02:41;10.57;;;6.70;;
39300;SDS011;25019;42.626;23.380;2023-02-18T00:05:07;12.07;;;7.00;;
39300;SDS011;25019;42.626;23.380;2023-02-18T00:07:34;13.03;;;6.73;;
39300;SDS011;25019;42.626;23.380;2023-02-18T00:09:59;10.67;;;6.23;;
39300;SDS011;25019;42.626;23.380;2023-02-18T00:12:25;8.87;;;6.37;;
39300;SDS011;25019;42.626;23.380;2023-02-18T00:14:51;12.70;;;5.90;;
39300;SDS011;25019;42.626;23.380;2023-02-18T00:17:17;10.60;;;6.40;;
39300;SDS011;25019;42.626;23.380;2023-02-18T00:19:42;10.17;;;6.57;;
39300;SDS011;25019;42.626;23.380;2023-02-18T00:22:08;11.53;;;6.77;;
39300;SDS011;25019;42.626;23.380;2023-02-18T00:24:34;12.40;;;6.90;;
39300;SDS011;25019;42.626;23.380;2023-02-18T00:26:59;11.57;;;6.40;;
39300;SDS011;25019;42.626;23.380;2023-02-18T00:29:25;10.00;;;5.77;;
39300;SDS011;25019;42.626;23.380;2023-02-18T00:31:50;9.80;;;6.90;;
39300;SDS011;25019;42.626;23.380;2023-02-18T00:34:16;12.57;;;6.97;;
39300;SDS011;25019;42.626;23.380;2023-02-18T00:36:42;12.80;;;6.80;;
39300;SDS011;25019;42.626;23.380;2023-02-18T00:39:09;9.00;;;6.03;;
39300;SDS011;25019;42.626;23.380;2023-02-18T00:41:37;10.67;;;6.33;;
39300;SDS011;25019;42.626;23.380;2023-02-18T00:44:04;12.67;;;6.40;;
39300;SDS011;25019;42.626;23.380;2023-02-18T00:46:30;12.43;;;6.40;;
39300;SDS011;25019;42.626;23.380;2023-02-18T00:48:56;10.17;;;6.33;;
39300;SDS011;25019;42.626;23.380;2023-02-18T00:51:22;8.90;;;5.57;;
39300;SDS011;25019;42.626;23.380;2023-02-18T00:53:49;12.07;;;6.47;;
39300;SDS011;25019;42.626;23.380;2023-02-18T00:56:15;10.13;;;6.23;;
39300;SDS011;25019;42.626;23.380;2023-02-18T00:58:41;11.33;;;5.97;;
39300;SDS011;25019;42.626;23.380;2023-02-18T01:01:07;9.27;;;5.90;;
39300;SDS011;25019;42.626;23.380;2023-02-18T01:03:34;12.37;;;6.30;;
39300;SDS011;25019;42.626;23.380;2023-02-18T01:06:03;10.27;;;5.80;;
39300;SDS011;25019;42.626;23.380;2023-02-18T01:08:31;11.23;;;6.33;;
39300;SDS011;25019;42.626;23.380;2023-02-18T01:10:57;9.40;;;6.30;;
39300;SDS011;25019;42.626;23.380;2023-02-18T01:13:24;9.97;;;6.27;;
39300;SDS011;25019;42.626;23.380;2023-02-18T01:15:50;11.87;;;6.23;;
39300;SDS011;25019;42.626;23.380;2023-02-18T01:18:16;11.27;;;6.27;;
39300;SDS011;25019;42.626;23.380;2023-02-18T01:20:43;9.93;;;6.20;;
39300;SDS011;25019;42.626;23.380;2023-02-18T01:23:10;13.00;;;6.27;;
39300;SDS011;25019;42.626;23.380;2023-02-18T01:25:36;11.23;;;6.40;;
39300;SDS011;25019;42.626;23.380;2023-02-18T01:28:02;10.07;;;6.77;;
39300;SDS011;25019;42.626;23.380;2023-02-18T01:30:29;10.47;;;6.47;;
39300;SDS011;25019;42.626;23.380;2023-02-18T01:32:56;11.53;;;6.67;;
39300;SDS011;25019;42.626;23.380;2023-02-18T01:35:22;10.67;;;6.43;;
39300;SDS011;25019;42.626;23.380;2023-02-18T01:37:49;15.07;;;7.00;;
39300;SDS011;25019;42.626;23.380;2023-02-18T01:40:16;11.93;;;6.80;;
39300;SDS011;25019;42.626;23.380;2023-02-18T01:42:45;11.67;;;6.77;;
39300;SDS011;25019;42.626;23.380;2023-02-18T01:47:59;10.77;;;7.17;;
39300;SDS011;25019;42.626;23.380;2023-02-18T01:50:28;11.20;;;7.10;;
39300;SDS011;25019;42.626;23.380;2023-02-18T01:52:54;12.10;;;7.00;;
39300;SDS011;25019;42.626;23.380;2023-02-18T01:55:20;15.43;;;7.43;;
39300;SDS011;25019;42.626;23.380;2023-02-18T01:57:46;12.53;;;7.10;;
39300;SDS011;25019;42.626;23.380;2023-02-18T02:00:13;12.73;;;7.53;;
39300;SDS011;25019;42.626;23.380;2023-02-18T02:02:46;11.73;;;7.30;;
39300;SDS011;25019;42.626;23.380;2023-02-18T02:05:13;13.60;;;7.60;;
39300;SDS011;25019;42.626;23.380;2023-02-18T02:07:40;13.33;;;7.40;;
39300;SDS011;25019;42.626;23.380;2023-02-18T02:10:08;13.53;;;6.87;;
39300;SDS011;25019;42.626;23.380;2023-02-18T02:12:55;12.83;;;6.60;;
39300;SDS011;25019;42.626;23.380;2023-02-18T02:15:31;15.87;;;8.17;;
39300;SDS011;25019;42.626;23.380;2023-02-18T02:18:28;15.83;;;8.07;;
39300;SDS011;25019;42.626;23.380;2023-02-18T02:26:57;12.87;;;7.67;;
39300;SDS011;25019;42.626;23.380;2023-02-18T02:30:27;12.03;;;6.80;;
39300;SDS011;25019;42.626;23.380;2023-02-18T02:35:44;15.83;;;8.10;;
39300;SDS011;25019;42.626;23.380;2023-02-18T02:38:17;17.37;;;7.60;;
39300;SDS011;25019;42.626;23.380;2023-02-18T02:46:47;13.27;;;6.43;;
39300;SDS011;25019;42.626;23.380;2023-02-18T02:52:11;13.07;;;7.70;;
39300;SDS011;25019;42.626;23.380;2023-02-18T02:54:41;16.03;;;7.03;;
39300;SDS011;25019;42.626;23.380;2023-02-18T02:59:46;11.43;;;6.57;;
39300;SDS011;25019;42.626;23.380;2023-02-18T03:03:05;8.87;;;5.73;;
39300;SDS011;25019;42.626;23.380;2023-02-18T03:08:22;10.70;;;6.10;;
39300;SDS011;25019;42.626;23.380;2023-02-18T03:13:38;11.50;;;5.67;;
39300;SDS011;25019;42.626;23.380;2023-02-18T03:19:37;9.03;;;5.67;;
39300;SDS011;25019;42.626;23.380;2023-02-18T03:22:11;9.63;;;6.43;;
39300;SDS011;25019;42.626;23.380;2023-02-18T03:24:43;11.37;;;6.93;;
39300;SDS011;25019;42.626;23.380;2023-02-18T03:27:20;10.80;;;6.57;;
39300;SDS011;25019;42.626;23.380;2023-02-18T03:30:32;9.83;;;6.20;;
39300;SDS011;25019;42.626;23.380;2023-02-18T03:32:45;12.40;;;5.90;;
39300;SDS011;25019;42.626;23.380;2023-02-18T03:35:14;10.13;;;5.90;;
39300;SDS011;25019;42.626;23.380;2023-02-18T03:37:44;12.70;;;7.20;;
39300;SDS011;25019;42.626;23.380;2023-02-18T03:40:31;10.37;;;6.70;;
39300;SDS011;25019;42.626;23.380;2023-02-18T03:42:59;15.03;;;7.30;;
39300;SDS011;25019;42.626;23.380;2023-02-18T03:45:25;9.33;;;6.40;;
39300;SDS011;25019;42.626;23.380;2023-02-18T03:47:51;10.13;;;6.37;;
39300;SDS011;25019;42.626;23.380;2023-02-18T03:50:17;10.00;;;6.50;;
39300;SDS011;25019;42.626;23.380;2023-02-18T03:52:43;10.33;;;6.40;;
39300;SDS011;25019;42.626;23.380;2023-02-18T03:55:09;12.37;;;6.67;;
39300;SDS011;25019;42.626;23.380;2023-02-18T03:57:35;10.47;;;6.03;;
39300;SDS011;25019;42.626;23.380;2023-02-18T04:00:00;10.80;;;6.97;;
39300;SDS011;25019;42.626;23.380;2023-02-18T04:02:38;10.90;;;6.40;;
39300;SDS011;25019;42.626;23.380;2023-02-18T04:05:04;9.30;;;6.63;;
39300;SDS011;25019;42.626;23.380;2023-02-18T04:07:31;9.07;;;6.30;;
39300;SDS011;25019;42.626;23.380;2023-02-18T04:09:57;10.80;;;6.23;;
39300;SDS011;25019;42.626;23.380;2023-02-18T04:12:22;12.33;;;7.70;;
39300;SDS011;25019;42.626;23.380;2023-02-18T04:14:48;12.20;;;7.17;;
39300;SDS011;25019;42.626;23.380;2023-02-18T04:17:14;10.43;;;6.70;;
39300;SDS011;25019;42.626;23.380;2023-02-18T04:19:40;13.83;;;6.77;;
39300;SDS011;25019;42.626;23.380;2023-02-18T04:22:05;12.07;;;6.50;;
39300;SDS011;25019;42.626;23.380;2023-02-18T04:24:31;13.20;;;6.70;;
39300;SDS011;25019;42.626;23.380;2023-02-18T04:26:57;12.33;;;6.70;;
39300;SDS011;25019;42.626;23.380;2023-02-18T04:29:22;12.50;;;6.80;;
39300;SDS011;25019;42.626;23.380;2023-02-18T04:31:48;12.23;;;6.30;;
39300;SDS011;25019;42.626;23.380;2023-02-18T04:34:13;11.20;;;6.80;;
39300;SDS011;25019;42.626;23.380;2023-02-18T04:36:39;10.73;;;6.00;;
39300;SDS011;25019;42.626;23.380;2023-02-18T04:39:04;10.73;;;6.00;;
39300;SDS011;25019;42.626;23.380;2023-02-18T04:41:30;8.27;;;5.80;;
39300;SDS011;25019;42.626;23.380;2023-02-18T04:43:56;12.87;;;6.50;;
39300;SDS011;25019;42.626;23.380;2023-02-18T04:46:23;13.03;;;5.57;;
39300;SDS011;25019;42.626;23.380;2023-02-18T04:48:49;11.57;;;5.63;;
39300;SDS011;25019;42.626;23.380;2023-02-18T04:51:15;10.43;;;5.70;;
39300;SDS011;25019;42.626;23.380;2023-02-18T04:53:41;11.90;;;5.77;;
39300;SDS011;25019;42.626;23.380;2023-02-18T04:56:06;9.03;;;5.30;;
39300;SDS011;25019;42.626;23.380;2023-02-18T04:58:32;9.70;;;5.40;;
39300;SDS011;25019;42.626;23.380;2023-02-18T05:01:01;9.17;;;5.77;;
39300;SDS011;25019;42.626;23.380;2023-02-18T05:03:30;11.07;;;6.03;;
39300;SDS011;25019;42.626;23.380;2023-02-18T05:05:56;10.63;;;5.97;;
39300;SDS011;25019;42.626;23.380;2023-02-18T05:08:22;11.60;;;6.97;;
39300;SDS011;25019;42.626;23.380;2023-02-18T05:10:48;11.97;;;7.03;;
39300;SDS011;25019;42.626;23.380;2023-02-18T05:13:14;11.60;;;6.97;;
39300;SDS011;25019;42.626;23.380;2023-02-18T05:15:40;11.60;;;7.70;;
39300;SDS011;25019;42.626;23.380;2023-02-18T05:18:05;11.50;;;6.73;;
39300;SDS011;25019;42.626;23.380;2023-02-18T05:20:31;13.80;;;7.53;;
39300;SDS011;25019;42.626;23.380;2023-02-18T05:22:58;14.77;;;7.77;;
39300;SDS011;25019;42.626;23.380;2023-02-18T05:25:23;13.73;;;6.80;;
39300;SDS011;25019;42.626;23.380;2023-02-18T05:27:49;12.77;;;7.03;;
39300;SDS011;25019;42.626;23.380;2023-02-18T05:30:15;13.27;;;7.70;;
39300;SDS011;25019;42.626;23.380;2023-02-18T05:32:40;11.20;;;6.70;;
39300;SDS011;25019;42.626;23.380;2023-02-18T05:35:06;10.20;;;6.63;;
39300;SDS011;25019;42.626;23.380;2023-02-18T05:37:32;12.53;;;6.40;;
39300;SDS011;25019;42.626;23.380;2023-02-18T05:39:58;11.70;;;7.40;;
39300;SDS011;25019;42.626;23.380;2023-02-18T05:42:24;11.27;;;7.20;;
39300;SDS011;25019;42.626;23.380;2023-02-18T05:44:50;12.07;;;6.80;;
39300;SDS011;25019;42.626;23.380;2023-02-18T05:47:15;12.73;;;6.57;;
39300;SDS011;25019;42.626;23.380;2023-02-18T05:49:42;11.60;;;6.73;;
39300;SDS011;25019;42.626;23.380;2023-02-18T05:52:08;13.03;;;7.27;;
39300;SDS011;25019;42.626;23.380;2023-02-18T05:54:35;15.03;;;8.03;;
39300;SDS011;25019;42.626;23.380;2023-02-18T05:57:01;13.10;;;7.33;;
39300;SDS011;25019;42.626;23.380;2023-02-18T05:59:27;14.73;;;7.53;;
39300;SDS011;25019;42.626;23.380;2023-02-18T06:01:53;15.43;;;7.60;;
39300;SDS011;25019;42.626;23.380;2023-02-18T06:04:19;10.17;;;6.50;;
39300;SDS011;25019;42.626;23.380;2023-02-18T06:06:45;8.93;;;6.00;;
39300;SDS011;25019;42.626;23.380;2023-02-18T06:09:11;9.50;;;6.07;;
39300;SDS011;25019;42.626;23.380;2023-02-18T06:11:37;10.33;;;6.27;;
39300;SDS011;25019;42.626;23.380;2023-02-18T06:14:03;10.17;;;5.93;;
39300;SDS011;25019;42.626;23.380;2023-02-18T06:16:29;10.40;;;6.80;;
39300;SDS011;25019;42.626;23.380;2023-02-18T06:18:55;13.50;;;7.03;;
39300;SDS011;25019;42.626;23.380;2023-02-18T06:21:21;10.97;;;7.33;;
39300;SDS011;25019;42.626;23.380;2023-02-18T06:23:47;10.73;;;6.47;;
39300;SDS011;25019;42.626;23.380;2023-02-18T06:26:12;11.97;;;7.00;;
39300;SDS011;25019;42.626;23.380;2023-02-18T06:28:38;14.53;;;7.50;;
39300;SDS011;25019;42.626;23.380;2023-02-18T06:31:04;13.17;;;7.83;;
39300;SDS011;25019;42.626;23.380;2023-02-18T06:33:29;16.70;;;7.27;;
39300;SDS011;25019;42.626;23.380;2023-02-18T06:35:59;15.60;;;7.83;;
39300;SDS011;25019;42.626;23.380;2023-02-18T06:38:28;15.17;;;8.13;;
39300;SDS011;25019;42.626;23.380;2023-02-18T06:40:53;15.57;;;8.27;;
39300;SDS011;25019;42.626;23.380;2023-02-18T06:43:19;14.60;;;8.83;;
39300;SDS011;25019;42.626;23.380;2023-02-18T06:45:45;15.53;;;7.80;;
39300;SDS011;25019;42.626;23.380;2023-02-18T06:48:11;13.40;;;7.43;;
39300;SDS011;25019;42.626;23.380;2023-02-18T06:50:37;14.80;;;8.40;;
39300;SDS011;25019;42.626;23.380;2023-02-18T06:53:03;12.50;;;7.93;;
39300;SDS011;25019;42.626;23.380;2023-02-18T06:55:29;13.90;;;7.80;;
39300;SDS011;25019;42.626;23.380;2023-02-18T06:57:54;12.97;;;7.60;;
39300;SDS011;25019;42.626;23.380;2023-02-18T07:00:20;12.90;;;8.20;;
39300;SDS011;25019;42.626;23.380;2023-02-18T07:02:46;13.97;;;8.00;;
39300;SDS011;25019;42.626;23.380;2023-02-18T07:05:12;16.33;;;8.13;;
39300;SDS011;25019;42.626;23.380;2023-02-18T07:07:38;13.20;;;7.00;;
39300;SDS011;25019;42.626;23.380;2023-02-18T07:10:04;13.10;;;6.73;;
39300;SDS011;25019;42.626;23.380;2023-02-18T07:12:30;13.57;;;7.40;;
39300;SDS011;25019;42.626;23.380;2023-02-18T07:14:56;12.93;;;7.10;;
39300;SDS011;25019;42.626;23.380;2023-02-18T07:17:22;12.40;;;7.37;;
39300;SDS011;25019;42.626;23.380;2023-02-18T07:19:47;13.23;;;6.57;;
39300;SDS011;25019;42.626;23.380;2023-02-18T07:22:13;9.80;;;6.10;;
39300;SDS011;25019;42.626;23.380;2023-02-18T07:24:39;11.13;;;6.27;;
39300;SDS011;25019;42.626;23.380;2023-02-18T07:27:04;12.67;;;5.93;;
39300;SDS011;25019;42.626;23.380;2023-02-18T07:29:30;12.70;;;6.43;;
39300;SDS011;25019;42.626;23.380;2023-02-18T07:31:55;10.70;;;6.80;;
39300;SDS011;25019;42.626;23.380;2023-02-18T07:34:21;18.47;;;8.70;;
39300;SDS011;25019;42.626;23.380;2023-02-18T07:36:47;18.23;;;9.27;;
39300;SDS011;25019;42.626;23.380;2023-02-18T07:39:12;16.83;;;9.30;;
39300;SDS011;25019;42.626;23.380;2023-02-18T07:41:38;16.23;;;9.67;;
39300;SDS011;25019;42.626;23.380;2023-02-18T07:44:13;19.13;;;11.40;;
39300;SDS011;25019;42.626;23.380;2023-02-18T07:46:39;19.27;;;11.03;;
39300;SDS011;25019;42.626;23.380;2023-02-18T07:49:05;16.33;;;9.60;;
39300;SDS011;25019;42.626;23.380;2023-02-18T07:51:31;15.70;;;10.13;;
39300;SDS011;25019;42.626;23.380;2023-02-18T07:53:56;18.50;;;10.70;;
39300;SDS011;25019;42.626;23.380;2023-02-18T07:56:22;16.73;;;10.37;;
39300;SDS011;25019;42.626;23.380;2023-02-18T07:58:48;18.57;;;10.73;;
39300;SDS011;25019;42.626;23.380;2023-02-18T08:01:13;18.27;;;11.27;;
39300;SDS011;25019;42.626;23.380;2023-02-18T08:03:40;22.40;;;12.50;;
39300;SDS011;25019;42.626;23.380;2023-02-18T08:06:06;20.07;;;11.57;;
39300;SDS011;25019;42.626;23.380;2023-02-18T08:08:32;18.33;;;11.37;;
39300;SDS011;25019;42.626;23.380;2023-02-18T08:10:59;18.93;;;11.57;;
39300;SDS011;25019;42.626;23.380;2023-02-18T08:13:31;27.27;;;12.63;;
39300;SDS011;25019;42.626;23.380;2023-02-18T08:15:58;15.43;;;10.33;;
39300;SDS011;25019;42.626;23.380;2023-02-18T08:18:24;18.73;;;10.53;;
39300;SDS011;25019;42.626;23.380;2023-02-18T08:20:50;19.47;;;10.13;;
39300;SDS011;25019;42.626;23.380;2023-02-18T08:23:17;17.33;;;10.67;;
39300;SDS011;25019;42.626;23.380;2023-02-18T08:25:45;19.33;;;11.70;;
39300;SDS011;25019;42.626;23.380;2023-02-18T08:28:12;16.23;;;10.37;;
39300;SDS011;25019;42.626;23.380;2023-02-18T08:30:38;18.60;;;10.30;;
39300;SDS011;25019;42.626;23.380;2023-02-18T08:33:09;20.33;;;10.47;;
39300;SDS011;25019;42.626;23.380;2023-02-18T08:35:35;16.10;;;9.40;;
39300;SDS011;25019;42.626;23.380;2023-02-18T08:38:00;15.83;;;8.53;;
39300;SDS011;25019;42.626;23.380;2023-02-18T08:40:26;16.40;;;8.27;;
39300;SDS011;25019;42.626;23.380;2023-02-18T08:42:52;11.27;;;6.60;;
39300;SDS011;25019;42.626;23.380;2023-02-18T08:45:17;12.43;;;6.73;;
39300;SDS011;25019;42.626;23.380;2023-02-18T08:47:43;13.00;;;6.83;;
39300;SDS011;25019;42.626;23.380;2023-02-18T08:50:09;13.20;;;7.70;;
39300;SDS011;25019;42.626;23.380;2023-02-18T08:52:35;14.03;;;7.47;;
39300;SDS011;25019;42.626;23.380;2023-02-18T08:55:00;14.77;;;8.17;;
39300;SDS011;25019;42.626;23.380;2023-02-18T08:57:27;13.37;;;7.93;;
39300;SDS011;25019;42.626;23.380;2023-02-18T08:59:53;14.77;;;8.17;;
39300;SDS011;25019;42.626;23.380;2023-02-18T09:02:19;15.57;;;8.57;;
39300;SDS011;25019;42.626;23.380;2023-02-18T09:04:44;15.03;;;8.90;;
39300;SDS011;25019;42.626;23.380;2023-02-18T09:07:10;15.60;;;9.53;;
39300;SDS011;25019;42.626;23.380;2023-02-18T09:09:36;16.03;;;8.90;;
39300;SDS011;25019;42.626;23.380;2023-02-18T09:12:01;15.97;;;8.47;;
39300;SDS011;25019;42.626;23.380;2023-02-18T09:14:27;15.23;;;10.07;;
39300;SDS011;25019;42.626;23.380;2023-02-18T09:16:52;20.97;;;10.27;;
39300;SDS011;25019;42.626;23.380;2023-02-18T09:19:18;18.23;;;10.80;;
39300;SDS011;25019;42.626;23.380;2023-02-18T09:21:44;19.70;;;10.67;;
39300;SDS011;25019;42.626;23.380;2023-02-18T09:24:09;16.07;;;9.70;;
39300;SDS011;25019;42.626;23.380;2023-02-18T09:26:35;20.03;;;10.43;;
39300;SDS011;25019;42.626;23.380;2023-02-18T09:29:02;17.03;;;9.50;;
39300;SDS011;25019;42.626;23.380;2023-02-18T09:31:28;14.53;;;8.53;;
39300;SDS011;25019;42.626;23.380;2023-02-18T09:33:55;13.57;;;8.97;;
39300;SDS011;25019;42.626;23.380;2023-02-18T09:36:22;15.67;;;8.53;;
39300;SDS011;25019;42.626;23.380;2023-02-18T09:38:48;16.83;;;8.33;;
39300;SDS011;25019;42.626;23.380;2023-02-18T09:43:50;17.80;;;8.17;;
39300;SDS011;25019;42.626;23.380;2023-02-18T09:46:20;19.40;;;9.00;;
39300;SDS011;25019;42.626;23.380;2023-02-18T09:48:51;13.53;;;9.57;;
39300;SDS011;25019;42.626;23.380;2023-02-18T09:51:17;14.33;;;9.07;;
39300;SDS011;25019;42.626;23.380;2023-02-18T09:53:44;16.93;;;8.87;;
39300;SDS011;25019;42.626;23.380;2023-02-18T09:56:11;16.57;;;8.87;;
39300;SDS011;25019;42.626;23.380;2023-02-18T09:58:40;14.40;;;8.40;;
39300;SDS011;25019;42.626;23.380;2023-02-18T10:03:39;11.97;;;7.80;;
39300;SDS011;25019;42.626;23.380;2023-02-18T10:06:17;15.00;;;8.03;;
39300;SDS011;25019;42.626;23.380;2023-02-18T10:08:48;20.33;;;9.93;;
39300;SDS011;25019;42.626;23.380;2023-02-18T10:13:53;16.43;;;9.20;;
39300;SDS011;25019;42.626;23.380;2023-02-18T10:16:20;17.83;;;9.33;;
39300;SDS011;25019;42.626;23.380;2023-02-18T10:18:48;13.77;;;8.77;;
39300;SDS011;25019;42.626;23.380;2023-02-18T10:21:24;16.37;;;9.90;;
39300;SDS011;25019;42.626;23.380;2023-02-18T10:26:20;15.93;;;9.97;;
39300;SDS011;25019;42.626;23.380;2023-02-18T10:28:46;17.00;;;9.57;;
39300;SDS011;25019;42.626;23.380;2023-02-18T10:31:24;19.93;;;10.73;;
39300;SDS011;25019;42.626;23.380;2023-02-18T10:36:40;13.93;;;9.30;;
39300;SDS011;25019;42.626;23.380;2023-02-18T10:47:41;15.93;;;9.67;;
39300;SDS011;25019;42.626;23.380;2023-02-18T10:50:36;19.43;;;10.40;;
39300;SDS011;25019;42.626;23.380;2023-02-18T10:53:15;14.13;;;8.67;;
39300;SDS011;25019;42.626;23.380;2023-02-18T10:55:47;16.80;;;9.30;;
39300;SDS011;25019;42.626;23.380;2023-02-18T11:00:57;18.50;;;9.87;;
39300;SDS011;25019;42.626;23.380;2023-02-18T11:03:49;16.97;;;10.07;;
39300;SDS011;25019;42.626;23.380;2023-02-18T11:08:49;17.33;;;8.90;;
39300;SDS011;25019;42.626;23.380;2023-02-18T11:11:31;13.23;;;8.13;;
39300;SDS011;25019;42.626;23.380;2023-02-18T11:14:03;16.53;;;8.17;;
39300;SDS011;25019;42.626;23.380;2023-02-18T11:16:41;16.83;;;8.33;;
39300;SDS011;25019;42.626;23.380;2023-02-18T11:22:14;14.50;;;8.57;;
39300;SDS011;25019;42.626;23.380;2023-02-18T11:24:45;12.80;;;7.30;;
39300;SDS011;25019;42.626;23.380;2023-02-18T11:27:19;15.33;;;8.33;;
39300;SDS011;25019;42.626;23.380;2023-02-18T11:29:50;13.67;;;7.77;;
39300;SDS011;25019;42.626;23.380;2023-02-18T11:32:18;15.93;;;8.50;;
39300;SDS011;25019;42.626;23.380;2023-02-18T11:34:43;22.97;;;10.50;;
39300;SDS011;25019;42.626;23.380;2023-02-18T11:37:16;26.30;;;10.17;;
39300;SDS011;25019;42.626;23.380;2023-02-18T11:39:45;20.93;;;8.97;;
39300;SDS011;25019;42.626;23.380;2023-02-18T11:42:15;27.70;;;9.00;;
39300;SDS011;25019;42.626;23.380;2023-02-18T11:44:51;19.60;;;8.50;;
39300;SDS011;25019;42.626;23.380;2023-02-18T11:47:21;16.13;;;8.47;;
39300;SDS011;25019;42.626;23.380;2023-02-18T11:52:36;13.83;;;8.07;;
39300;SDS011;25019;42.626;23.380;2023-02-18T11:55:12;19.10;;;8.27;;
39300;SDS011;25019;42.626;23.380;2023-02-18T11:57:56;14.70;;;8.30;;
39300;SDS011;25019;42.626;23.380;2023-02-18T12:05:45;14.00;;;7.70;;
39300;SDS011;25019;42.626;23.380;2023-02-18T12:08:13;15.00;;;8.07;;
39300;SDS011;25019;42.626;23.380;2023-02-18T12:10:47;14.53;;;7.97;;
39300;SDS011;25019;42.626;23.380;2023-02-18T12:15:56;18.90;;;8.83;;
39300;SDS011;25019;42.626;23.380;2023-02-18T12:21:11;17.73;;;8.67;;
39300;SDS011;25019;42.626;23.380;2023-02-18T12:26:27;11.33;;;7.03;;
39300;SDS011;25019;42.626;23.380;2023-02-18T12:36:50;13.40;;;6.60;;
39300;SDS011;25019;42.626;23.380;2023-02-18T12:45:01;10.00;;;5.30;;
39300;SDS011;25019;42.626;23.380;2023-02-18T12:48:05;8.53;;;4.40;;
39300;SDS011;25019;42.626;23.380;2023-02-18T12:56:08;6.67;;;4.10;;
39300;SDS011;25019;42.626;23.380;2023-02-18T13:10:19;6.97;;;1.87;;
39300;SDS011;25019;42.626;23.380;2023-02-18T13:13:17;6.47;;;1.67;;
39300;SDS011;25019;42.626;23.380;2023-02-18T13:15:54;3.10;;;1.30;;
39300;SDS011;25019;42.626;23.380;2023-02-18T13:18:32;1.80;;;1.00;;
39300;SDS011;25019;42.626;23.380;2023-02-18T13:21:05;2.40;;;1.17;;
39300;SDS011;25019;42.626;23.380;2023-02-18T13:23:37;1.73;;;1.07;;
39300;SDS011;25019;42.626;23.380;2023-02-18T13:26:08;3.00;;;1.20;;
39300;SDS011;25019;42.626;23.380;2023-02-18T13:31:46;5.37;;;1.37;;
39300;SDS011;25019;42.626;23.380;2023-02-18T13:37:45;3.87;;;2.10;;
39300;SDS011;25019;42.626;23.380;2023-02-18T13:40:20;4.37;;;2.03;;
39300;SDS011;25019;42.626;23.380;2023-02-18T13:42:52;2.90;;;2.10;;
39300;SDS011;25019;42.626;23.380;2023-02-18T13:45:27;5.13;;;2.13;;
39300;SDS011;25019;42.626;23.380;2023-02-18T13:47:55;4.80;;;2.00;;
39300;SDS011;25019;42.626;23.380;2023-02-18T13:55:38;4.80;;;2.40;;
39300;SDS011;25019;42.626;23.380;2023-02-18T13:58:17;5.57;;;2.77;;
39300;SDS011;25019;42.626;23.380;2023-02-18T14:00:52;9.73;;;3.20;;
39300;SDS011;25019;42.626;23.380;2023-02-18T14:06:22;8.67;;;4.03;;
39300;SDS011;25019;42.626;23.380;2023-02-18T14:14:15;6.70;;;4.30;;
39300;SDS011;25019;42.626;23.380;2023-02-18T14:19:53;8.10;;;4.23;;
39300;SDS011;25019;42.626;23.380;2023-02-18T14:25:13;7.90;;;4.53;;
39300;SDS011;25019;42.626;23.380;2023-02-18T14:28:00;9.73;;;3.77;;
39300;SDS011;25019;42.626;23.380;2023-02-18T14:30:45;5.43;;;3.43;;
39300;SDS011;25019;42.626;23.380;2023-02-18T14:33:12;10.73;;;4.83;;
39300;SDS011;25019;42.626;23.380;2023-02-18T14:41:20;6.33;;;3.50;;
39300;SDS011;25019;42.626;23.380;2023-02-18T14:51:41;6.17;;;3.80;;
39300;SDS011;25019;42.626;23.380;2023-02-18T14:54:16;9.70;;;4.27;;
39300;SDS011;25019;42.626;23.380;2023-02-18T14:57:06;6.60;;;4.17;;
39300;SDS011;25019;42.626;23.380;2023-02-18T14:59:33;8.00;;;4.13;;
39300;SDS011;25019;42.626;23.380;2023-02-18T15:02:01;8.37;;;4.30;;
39300;SDS011;25019;42.626;23.380;2023-02-18T15:04:27;6.83;;;3.57;;
39300;SDS011;25019;42.626;23.380;2023-02-18T15:06:57;7.00;;;4.30;;
39300;SDS011;25019;42.626;23.380;2023-02-18T15:09:25;6.63;;;4.30;;
39300;SDS011;25019;42.626;23.380;2023-02-18T15:14:29;7.73;;;4.20;;
39300;SDS011;25019;42.626;23.380;2023-02-18T15:17:01;10.83;;;4.53;;
39300;SDS011;25019;42.626;23.380;2023-02-18T15:19:29;8.97;;;4.50;;
39300;SDS011;25019;42.626;23.380;2023-02-18T15:22:03;5.87;;;4.07;;
39300;SDS011;25019;42.626;23.380;2023-02-18T15:24:30;6.33;;;4.10;;
39300;SDS011;25019;42.626;23.380;2023-02-18T15:26:59;9.87;;;4.60;;
39300;SDS011;25019;42.626;23.380;2023-02-18T15:29:28;9.07;;;4.37;;
39300;SDS011;25019;42.626;23.380;2023-02-18T15:31:57;7.37;;;3.80;;
39300;SDS011;25019;42.626;23.380;2023-02-18T15:36:53;5.87;;;3.57;;
39300;SDS011;25019;42.626;23.380;2023-02-18T15:39:19;7.77;;;4.30;;
39300;SDS011;25019;42.626;23.380;2023-02-18T15:41:45;10.30;;;4.60;;
39300;SDS011;25019;42.626;23.380;2023-02-18T15:44:17;6.97;;;4.17;;
39300;SDS011;25019;42.626;23.380;2023-02-18T15:46:46;8.90;;;4.33;;
39300;SDS011;25019;42.626;23.380;2023-02-18T15:49:13;7.53;;;4.20;;
39300;SDS011;25019;42.626;23.380;2023-02-18T15:51:40;9.20;;;4.03;;
39300;SDS011;25019;42.626;23.380;2023-02-18T15:54:12;7.77;;;4.57;;
39300;SDS011;25019;42.626;23.380;2023-02-18T15:56:45;11.20;;;5.10;;
39300;SDS011;25019;42.626;23.380;2023-02-18T16:01:54;8.90;;;4.50;;
39300;SDS011;25019;42.626;23.380;2023-02-18T16:04:23;9.57;;;4.67;;
39300;SDS011;25019;42.626;23.380;2023-02-18T16:06:54;8.20;;;5.33;;
39300;SDS011;25019;42.626;23.380;2023-02-18T16:09:31;9.17;;;5.07;;
39300;SDS011;25019;42.626;23.380;2023-02-18T16:11:58;7.43;;;4.93;;
39300;SDS011;25019;42.626;23.380;2023-02-18T16:14:33;8.60;;;5.47;;
39300;SDS011;25019;42.626;23.380;2023-02-18T16:17:25;11.53;;;5.57;;
39300;SDS011;25019;42.626;23.380;2023-02-18T16:24:56;8.87;;;5.67;;
39300;SDS011;25019;42.626;23.380;2023-02-18T16:27:27;19.27;;;7.87;;
39300;SDS011;25019;42.626;23.380;2023-02-18T16:30:02;14.60;;;7.33;;
39300;SDS011;25019;42.626;23.380;2023-02-18T16:32:40;11.33;;;6.57;;
39300;SDS011;25019;42.626;23.380;2023-02-18T16:35:06;12.90;;;7.10;;
39300;SDS011;25019;42.626;23.380;2023-02-18T16:37:31;13.10;;;7.70;;
39300;SDS011;25019;42.626;23.380;2023-02-18T16:40:05;10.77;;;5.90;;
39300;SDS011;25019;42.626;23.380;2023-02-18T16:42:40;14.37;;;7.37;;
39300;SDS011;25019;42.626;23.380;2023-02-18T16:45:07;12.97;;;8.03;;
39300;SDS011;25019;42.626;23.380;2023-02-18T16:47:37;15.27;;;8.67;;
39300;SDS011;25019;42.626;23.380;2023-02-18T16:50:03;11.03;;;6.60;;
39300;SDS011;25019;42.626;23.380;2023-02-18T16:52:30;10.80;;;5.30;;
39300;SDS011;25019;42.626;23.380;2023-02-18T16:54:55;11.63;;;6.10;;
39300;SDS011;25019;42.626;23.380;2023-02-18T16:57:21;9.57;;;4.70;;
39300;SDS011;25019;42.626;23.380;2023-02-18T16:59:46;10.13;;;4.60;;
39300;SDS011;25019;42.626;23.380;2023-02-18T17:02:17;8.50;;;4.87;;
39300;SDS011;25019;42.626;23.380;2023-02-18T17:04:46;8.93;;;5.40;;
39300;SDS011;25019;42.626;23.380;2023-02-18T17:07:12;9.57;;;4.80;;
39300;SDS011;25019;42.626;23.380;2023-02-18T17:09:37;9.07;;;5.70;;
39300;SDS011;25019;42.626;23.380;2023-02-18T17:12:03;11.60;;;7.00;;
39300;SDS011;25019;42.626;23.380;2023-02-18T17:14:29;12.03;;;6.57;;